Dresden, Missouri
Current Conditions -  °F | °C
As of 1:53 PM on Wednesday 26 Nov 2014 (Local Time) from KDMO Reporting Station
Overcast Overcast  
Wind Chill:   Ceiling: 2700
Heat Index:   Visibility: 10mi
Dew Point: -1°   Wind: 17mph
Humidity: 65%   Direction: 300°WNW
Pressure: 29.99"   Gusts: 28mph
Location:  38.6763°N, 93.2612°W
Report Text: KDMO 261953Z AUTO 30015G24KT 10SM BKN027 OVC035 06/M01 A2999 RMK AO2 SLP160 T00561006
Loading
Personal Weather Stations






























Interactive Weather Map New forecast layout! Learn more

10-Day Weather Forecast

Advertisements
Track Severe Weather on mobile